createdAt,value
2018-01-27T00:02:18.858Z,101284.35
2018-01-27T00:04:48.189Z,101290.84
2018-01-27T00:07:17.448Z,101274.63
2018-01-27T00:09:46.666Z,101280.30
2018-01-27T00:12:16.652Z,101281.09
2018-01-27T00:14:46.099Z,101272.85
2018-01-27T00:17:15.403Z,101277.58
2018-01-27T00:19:44.607Z,101283.92
2018-01-27T00:22:13.834Z,101291.77
2018-01-27T00:24:43.058Z,101293.11
2018-01-27T00:27:12.285Z,101293.00
2018-01-27T00:29:42.259Z,101290.56
2018-01-27T00:32:11.590Z,101290.98
2018-01-27T00:34:41.622Z,101290.14
2018-01-27T00:37:10.866Z,101295.94
2018-01-27T00:39:40.118Z,101289.62
2018-01-27T00:42:09.422Z,101288.13
2018-01-27T00:44:38.651Z,101288.94
2018-01-27T00:47:07.871Z,101299.62
2018-01-27T00:49:37.282Z,101302.03
2018-01-27T00:52:06.487Z,101298.54
2018-01-27T00:54:35.698Z,101301.92
2018-01-27T00:57:04.944Z,101298.80
2018-01-27T00:59:34.138Z,101296.63
2018-01-27T01:02:03.426Z,101290.81
2018-01-27T01:04:32.651Z,101302.97
2018-01-27T01:07:01.886Z,101304.73
2018-01-27T01:09:31.996Z,101303.91
2018-01-27T01:12:01.307Z,101300.93
2018-01-27T01:14:31.476Z,101304.84
2018-01-27T01:17:00.677Z,101295.94
2018-01-27T01:19:29.923Z,101311.61
2018-01-27T01:21:59.888Z,101309.16
2018-01-27T01:24:29.441Z,101306.72
2018-01-27T01:26:59.419Z,101312.55
2018-01-27T01:29:30.176Z,101311.47
2018-01-27T01:31:59.377Z,101319.44
2018-01-27T01:34:29.363Z,101324.55
2018-01-27T01:36:58.671Z,101335.08
2018-01-27T01:39:28.046Z,101332.12
2018-01-27T01:41:57.269Z,101335.37
2018-01-27T01:44:26.538Z,101331.85
2018-01-27T01:46:55.758Z,101336.58
2018-01-27T01:49:24.961Z,101334.15
2018-01-27T01:51:54.197Z,101335.64
2018-01-27T01:54:24.263Z,101337.38
2018-01-27T01:56:53.509Z,101334.29
2018-01-27T01:59:22.707Z,101334.95
2018-01-27T02:01:52.704Z,101336.31
2018-01-27T02:04:22.872Z,101338.34
2018-01-27T02:06:52.120Z,101323.62
2018-01-27T02:09:21.389Z,101319.42
2018-01-27T02:11:50.625Z,101325.66
2018-01-27T02:14:20.602Z,101331.06
2018-01-27T02:16:49.942Z,101331.87
2018-01-27T02:19:19.122Z,101336.73
2018-01-27T02:21:48.357Z,101330.38
2018-01-27T02:24:17.616Z,101336.05
2018-01-27T02:26:46.798Z,101336.73
2018-01-27T02:29:16.262Z,101329.33
2018-01-27T02:31:45.578Z,101335.81
2018-01-27T02:34:14.940Z,101336.35
2018-01-27T02:36:44.932Z,101327.55
2018-01-27T02:39:14.213Z,101332.28
2018-01-27T02:41:43.601Z,101336.05
2018-01-27T02:44:12.839Z,101332.84
2018-01-27T02:46:42.087Z,101338.50
2018-01-27T02:49:11.427Z,101335.12
2018-01-27T02:51:40.652Z,101338.63
2018-01-27T02:54:10.626Z,101338.77
2018-01-27T02:56:39.839Z,101338.75
2018-01-27T02:59:09.822Z,101345.37
2018-01-27T03:01:39.019Z,101349.02
2018-01-27T03:04:08.447Z,101357.11
2018-01-27T03:06:37.755Z,101352.66
2018-01-27T03:09:07.025Z,101347.80
2018-01-27T03:11:36.255Z,101338.63
2018-01-27T03:14:05.445Z,101350.94
2018-01-27T03:16:34.681Z,101344.97
2018-01-27T03:19:04.668Z,101359.56
2018-01-27T03:21:34.019Z,101352.55
2018-01-27T03:24:03.262Z,101352.14
2018-01-27T03:26:32.530Z,101357.55
2018-01-27T03:29:01.826Z,101371.56
2018-01-27T03:31:31.022Z,101373.59
2018-01-27T03:34:00.994Z,101376.69
2018-01-27T03:36:30.268Z,101376.13
2018-01-27T03:39:00.317Z,101376.27
2018-01-27T03:41:30.527Z,101377.75
2018-01-27T03:43:59.758Z,101378.16
2018-01-27T03:46:28.959Z,101373.55
2018-01-27T03:48:58.372Z,101376.93
2018-01-27T03:51:27.805Z,101375.42
2018-01-27T03:53:57.015Z,101377.03
2018-01-27T03:56:26.239Z,101382.87
2018-01-27T03:58:56.190Z,101381.14
2018-01-27T04:01:25.450Z,101395.98
2018-01-27T04:03:54.633Z,101395.44
2018-01-27T04:06:23.830Z,101395.87
2018-01-27T04:08:53.039Z,101402.89
2018-01-27T04:11:22.322Z,101408.56
2018-01-27T04:13:51.523Z,101411.53
2018-01-27T04:16:20.746Z,101414.77
2018-01-27T04:18:50.002Z,101417.88
2018-01-27T04:21:19.679Z,101431.95
2018-01-27T04:23:48.872Z,101430.08
2018-01-27T04:26:18.133Z,101434.66
2018-01-27T04:28:48.102Z,101440.36
2018-01-27T04:31:17.356Z,101439.69
2018-01-27T04:33:47.417Z,101447.65
2018-01-27T04:36:16.611Z,101450.48
2018-01-27T04:38:45.829Z,101454.97
2018-01-27T04:41:15.045Z,101458.34
2018-01-27T04:43:45.045Z,101463.91
2018-01-27T04:46:14.286Z,101466.31
2018-01-27T04:48:43.586Z,101466.45
2018-01-27T04:51:13.585Z,101474.40
2018-01-27T04:53:43.773Z,101474.16
2018-01-27T04:56:12.977Z,101477.94
2018-01-27T04:58:42.242Z,101480.37
2018-01-27T05:01:11.501Z,101475.91
2018-01-27T05:03:41.635Z,101481.28
2018-01-27T05:06:10.830Z,101485.07
2018-01-27T05:08:40.839Z,101488.42
2018-01-27T05:11:10.835Z,101490.85
2018-01-27T05:13:40.030Z,101487.50
2018-01-27T05:16:10.194Z,101501.69
2018-01-27T05:18:39.411Z,101497.50
2018-01-27T05:21:09.633Z,101507.48
2018-01-27T05:23:38.846Z,101510.87
2018-01-27T05:26:08.233Z,101515.89
2018-01-27T05:28:37.466Z,101508.16
2018-01-27T05:31:06.698Z,101510.48
2018-01-27T05:33:36.163Z,101515.22
2018-01-27T05:36:05.359Z,101524.54
2018-01-27T05:38:34.673Z,101527.38
2018-01-27T05:41:03.857Z,101536.53
2018-01-27T05:43:33.074Z,101536.94
2018-01-27T05:46:03.050Z,101542.20
2018-01-27T05:48:32.430Z,101539.61
2018-01-27T05:51:01.633Z,101545.25
2018-01-27T05:53:30.858Z,101554.16
2018-01-27T05:56:00.112Z,101551.05
2018-01-27T05:58:29.322Z,101548.45
2018-01-27T06:00:58.534Z,101545.31
2018-01-27T06:03:27.790Z,101543.02
2018-01-27T06:05:57.014Z,101556.11
2018-01-27T06:08:26.248Z,101554.35
2018-01-27T06:10:56.439Z,101549.77
2018-01-27T06:13:25.649Z,101553.51
2018-01-27T06:15:54.870Z,101554.68
2018-01-27T06:18:25.619Z,101557.51
2018-01-27T06:20:55.782Z,101553.05
2018-01-27T06:23:24.982Z,101558.27
2018-01-27T06:25:54.251Z,101568.20
2018-01-27T06:28:24.253Z,101568.43
2018-01-27T06:30:54.270Z,101569.73
2018-01-27T06:33:23.432Z,101571.21
2018-01-27T06:35:52.767Z,101574.72
2018-01-27T06:38:21.968Z,101574.67
2018-01-27T06:40:51.941Z,101577.48
2018-01-27T06:43:21.173Z,101586.88
2018-01-27T06:45:51.151Z,101588.37
2018-01-27T06:48:20.375Z,101590.80
2018-01-27T06:50:49.591Z,101592.94
2018-01-27T06:53:18.853Z,101590.48
2018-01-27T06:55:48.129Z,101594.91
2018-01-27T06:58:17.350Z,101598.27
2018-01-27T07:00:46.569Z,101609.81
2018-01-27T07:03:15.750Z,101615.16
2018-01-27T07:05:44.973Z,101621.89
2018-01-27T07:08:14.229Z,101626.39
2018-01-27T07:10:43.448Z,101628.44
2018-01-27T07:13:13.429Z,101632.41
2018-01-27T07:15:42.775Z,101634.89
2018-01-27T07:18:12.023Z,101630.17
2018-01-27T07:20:41.239Z,101643.45
2018-01-27T07:23:10.850Z,101650.22
2018-01-27T07:25:40.056Z,101646.89
2018-01-27T07:28:09.274Z,101646.23
2018-01-27T07:30:39.254Z,101647.19
2018-01-27T07:33:08.468Z,101645.44
2018-01-27T07:35:37.681Z,101650.48
2018-01-27T07:38:06.912Z,101650.26
2018-01-27T07:40:36.207Z,101651.08
2018-01-27T07:43:05.418Z,101654.50
2018-01-27T07:45:34.644Z,101661.92
2018-01-27T07:48:03.866Z,101668.15
2018-01-27T07:50:33.782Z,101665.22
2018-01-27T07:53:03.099Z,101659.55
2018-01-27T07:55:32.337Z,101662.52
2018-01-27T07:58:01.548Z,101659.63
2018-01-27T08:00:30.794Z,101658.68
2018-01-27T08:03:00.778Z,101669.21
2018-01-27T08:05:30.356Z,101673.31
2018-01-27T08:07:59.566Z,101664.16
2018-01-27T08:10:28.775Z,101658.35
2018-01-27T08:12:57.991Z,101666.58
2018-01-27T08:15:27.199Z,101673.91
2018-01-27T08:17:56.538Z,101669.02
2018-01-27T08:20:26.514Z,101678.78
2018-01-27T08:22:57.237Z,101676.80
2018-01-27T08:25:27.222Z,101674.66
2018-01-27T08:27:56.513Z,101676.95
2018-01-27T08:30:25.761Z,101680.06
2018-01-27T08:32:54.987Z,101679.16
2018-01-27T08:35:24.197Z,101689.16
2018-01-27T08:37:53.427Z,101685.78
2018-01-27T08:40:24.198Z,101683.39
2018-01-27T08:42:54.225Z,101690.02
2018-01-27T08:45:23.495Z,101700.02
2018-01-27T08:47:53.466Z,101711.00
2018-01-27T08:50:22.804Z,101707.63
2018-01-27T08:52:52.132Z,101701.55
2018-01-27T08:55:21.414Z,101698.70
2018-01-27T08:57:50.607Z,101693.53
2018-01-27T09:00:19.827Z,101691.64
2018-01-27T09:02:49.038Z,101696.38
2018-01-27T09:05:18.342Z,101698.67
2018-01-27T09:07:47.562Z,101685.96
2018-01-27T09:10:16.860Z,101682.45
2018-01-27T09:12:46.084Z,101685.65
2018-01-27T09:15:16.810Z,101685.09
2018-01-27T09:17:46.086Z,101682.62
2018-01-27T09:20:15.303Z,101684.02
2018-01-27T09:22:44.705Z,101692.94
2018-01-27T09:25:15.000Z,101709.86
2018-01-27T09:27:44.177Z,101714.05
2018-01-27T09:30:14.206Z,101718.52
2018-01-27T09:32:43.431Z,101724.20
2018-01-27T09:35:12.703Z,101726.13
2018-01-27T09:37:41.974Z,101725.23
2018-01-27T09:40:11.179Z,101720.97
2018-01-27T09:42:41.179Z,101721.56
2018-01-27T09:45:10.666Z,101716.77
2018-01-27T09:47:39.953Z,101718.67
2018-01-27T09:50:09.171Z,101719.08
2018-01-27T09:52:38.405Z,101716.55
2018-01-27T09:55:07.672Z,101718.31
2018-01-27T09:57:36.889Z,101712.95
2018-01-27T10:00:09.356Z,101712.59
2018-01-27T10:02:38.581Z,101712.02
2018-01-27T10:05:07.854Z,101702.05
2018-01-27T10:07:37.018Z,101700.16
2018-01-27T10:10:06.239Z,101704.25
2018-01-27T10:12:35.602Z,101703.58
2018-01-27T10:15:04.818Z,101696.55
2018-01-27T10:17:34.042Z,101697.40
2018-01-27T10:20:04.093Z,101699.59
2018-01-27T10:22:33.347Z,101710.72
2018-01-27T10:25:02.700Z,101711.97
2018-01-27T10:27:32.005Z,101713.35
2018-01-27T10:30:01.224Z,101709.70
2018-01-27T10:32:31.155Z,101716.33
2018-01-27T10:35:00.364Z,101712.03
2018-01-27T10:37:30.371Z,101709.35
2018-01-27T10:40:00.394Z,101706.64
2018-01-27T10:42:29.601Z,101702.45
2018-01-27T10:44:59.586Z,101699.61
2018-01-27T10:47:28.862Z,101702.75
2018-01-27T10:49:58.127Z,101700.20
2018-01-27T10:52:27.379Z,101697.63
2018-01-27T10:54:56.615Z,101701.69
2018-01-27T10:57:25.843Z,101712.89
2018-01-27T10:59:55.081Z,101711.27
2018-01-27T11:02:24.316Z,101708.86
2018-01-27T11:04:54.676Z,101705.34
2018-01-27T11:07:23.877Z,101701.14
2018-01-27T11:09:53.116Z,101708.23
2018-01-27T11:12:22.401Z,101712.01
2018-01-27T11:14:51.615Z,101713.81
2018-01-27T11:17:21.599Z,101720.84
2018-01-27T11:19:50.843Z,101711.39
2018-01-27T11:22:20.062Z,101710.44
2018-01-27T11:24:49.288Z,101714.92
2018-01-27T11:27:18.561Z,101721.56
2018-01-27T11:29:48.566Z,101719.53
2018-01-27T11:32:17.993Z,101721.44
2018-01-27T11:34:47.191Z,101715.18
2018-01-27T11:37:16.422Z,101722.89
2018-01-27T11:39:45.715Z,101713.98
2018-01-27T11:42:15.893Z,101718.17
2018-01-27T11:44:45.984Z,101715.63
2018-01-27T11:47:17.032Z,101714.30
2018-01-27T11:49:47.076Z,101704.67
2018-01-27T11:52:16.411Z,101704.55
2018-01-27T11:54:46.440Z,101701.14
2018-01-27T11:57:16.478Z,101700.48
2018-01-27T11:59:46.472Z,101706.42
2018-01-27T12:02:15.721Z,101703.98
2018-01-27T12:04:44.972Z,101698.17
2018-01-27T12:07:14.280Z,101695.34
2018-01-27T12:09:43.586Z,101697.89
2018-01-27T12:12:12.970Z,101690.05
2018-01-27T12:14:42.211Z,101682.17
2018-01-27T12:17:11.443Z,101680.58
2018-01-27T12:19:40.675Z,101667.81
2018-01-27T12:22:10.668Z,101656.14
2018-01-27T12:24:39.918Z,101656.30
2018-01-27T12:27:09.231Z,101658.34
2018-01-27T12:29:38.688Z,101657.53
2018-01-27T12:32:09.519Z,101650.36
2018-01-27T12:34:38.930Z,101652.12
2018-01-27T12:37:08.907Z,101656.19
2018-01-27T12:39:38.185Z,101650.20
2018-01-27T12:42:07.399Z,101647.36
2018-01-27T12:44:36.651Z,101636.12
2018-01-27T12:47:06.706Z,101634.38
2018-01-27T12:49:35.940Z,101633.14
2018-01-27T12:52:05.271Z,101625.16
2018-01-27T12:54:34.524Z,101615.27
2018-01-27T12:57:03.911Z,101608.89
2018-01-27T12:59:33.203Z,101605.23
2018-01-27T13:02:02.413Z,101610.38
2018-01-27T13:04:31.614Z,101610.09
2018-01-27T13:07:00.827Z,101602.23
2018-01-27T13:09:30.090Z,101610.48
2018-01-27T13:11:59.316Z,101612.25
2018-01-27T13:14:30.069Z,101612.39
2018-01-27T13:16:59.272Z,101621.34
2018-01-27T13:19:29.290Z,101619.03
2018-01-27T13:21:58.535Z,101606.31
2018-01-27T13:24:27.764Z,101596.55
2018-01-27T13:26:56.985Z,101600.30
2018-01-27T13:29:27.035Z,101592.97
2018-01-27T13:31:56.286Z,101581.73
2018-01-27T13:34:25.514Z,101576.02
2018-01-27T13:36:55.506Z,101569.80
2018-01-27T13:39:26.271Z,101570.09
2018-01-27T13:41:55.536Z,101573.86
2018-01-27T13:44:26.284Z,101583.77
2018-01-27T13:46:56.288Z,101588.12
2018-01-27T13:49:25.530Z,101592.17
2018-01-27T13:51:54.727Z,101601.95
2018-01-27T13:54:23.973Z,101607.52
2018-01-27T13:56:53.202Z,101605.20
2018-01-27T13:59:22.584Z,101593.02
2018-01-27T14:01:52.687Z,101581.50
2018-01-27T14:04:21.931Z,101568.89
2018-01-27T14:06:51.129Z,101571.91
2018-01-27T14:09:20.343Z,101578.66
2018-01-27T14:11:49.641Z,101596.01
2018-01-27T14:14:18.858Z,101602.75
2018-01-27T14:16:48.110Z,101614.82
2018-01-27T14:19:17.319Z,101627.83
2018-01-27T14:21:46.576Z,101626.17
2018-01-27T14:24:15.847Z,101624.28
2018-01-27T14:26:45.066Z,101634.86
2018-01-27T14:29:14.299Z,101621.61
2018-01-27T14:31:43.540Z,101617.71
2018-01-27T14:34:12.743Z,101622.45
2018-01-27T14:36:41.995Z,101619.05
2018-01-27T14:39:11.206Z,101618.62
2018-01-27T14:41:40.445Z,101622.97
2018-01-27T14:44:09.653Z,101624.19
2018-01-27T14:46:39.120Z,101622.70
2018-01-27T14:49:08.343Z,101620.02
2018-01-27T14:51:37.537Z,101611.74
2018-01-27T14:54:06.786Z,101599.71
2018-01-27T14:56:35.990Z,101592.66
2018-01-27T14:59:05.262Z,101592.80
2018-01-27T15:01:34.551Z,101596.59
2018-01-27T15:04:03.783Z,101597.96
2018-01-27T15:06:33.026Z,101595.53
2018-01-27T15:09:02.223Z,101590.12
2018-01-27T15:11:31.453Z,101583.34
2018-01-27T15:14:00.810Z,101585.77
2018-01-27T15:16:30.330Z,101592.97
2018-01-27T15:18:59.566Z,101578.75
2018-01-27T15:21:28.805Z,101569.77
2018-01-27T15:23:58.109Z,101566.80
2018-01-27T15:26:27.340Z,101548.00
2018-01-27T15:28:59.390Z,101537.02
2018-01-27T15:31:28.667Z,101536.77
2018-01-27T15:33:57.911Z,101532.98
2018-01-27T15:36:27.148Z,101533.11
2018-01-27T15:38:56.907Z,101535.28
2018-01-27T15:41:26.111Z,101534.47
2018-01-27T15:43:55.360Z,101535.25
2018-01-27T15:46:24.838Z,101542.43
2018-01-27T15:48:54.034Z,101534.98
2018-01-27T15:51:24.919Z,101531.05
2018-01-27T15:53:54.203Z,101533.77
2018-01-27T15:56:23.614Z,101534.16
2018-01-27T15:58:52.829Z,101538.89
2018-01-27T16:01:22.091Z,101547.43
2018-01-27T16:03:51.408Z,101544.97
2018-01-27T16:06:20.600Z,101548.61
2018-01-27T16:08:49.822Z,101541.16
2018-01-27T16:11:19.051Z,101547.22
2018-01-27T16:13:49.044Z,101550.59
2018-01-27T16:16:18.478Z,101544.36
2018-01-27T16:18:47.722Z,101543.28
2018-01-27T16:21:16.964Z,101533.39
2018-01-27T16:23:46.843Z,101534.59
2018-01-27T16:26:16.103Z,101533.38
2018-01-27T16:28:45.356Z,101537.40
2018-01-27T16:31:14.574Z,101539.56
2018-01-27T16:33:43.836Z,101546.42
2018-01-27T16:36:14.552Z,101529.41
2018-01-27T16:38:46.875Z,101524.88
2018-01-27T16:41:17.131Z,101539.88
2018-01-27T16:43:46.364Z,101541.63
2018-01-27T16:46:15.605Z,101546.46
2018-01-27T16:48:44.846Z,101559.42
2018-01-27T16:51:14.061Z,101555.11
2018-01-27T16:53:45.206Z,101549.97
2018-01-27T16:56:14.551Z,101544.53
2018-01-27T16:58:43.789Z,101566.64
2018-01-27T17:01:13.026Z,101560.80
2018-01-27T17:03:42.292Z,101557.83
2018-01-27T17:06:11.524Z,101558.27
2018-01-27T17:08:41.518Z,101545.55
2018-01-27T17:11:10.839Z,101532.75
2018-01-27T17:13:40.853Z,101519.25
2018-01-27T17:16:10.158Z,101521.51
2018-01-27T17:18:40.691Z,101518.09
2018-01-27T17:21:10.681Z,101510.80
2018-01-27T17:23:39.944Z,101488.13
2018-01-27T17:26:09.543Z,101491.88
2018-01-27T17:28:38.775Z,101481.84
2018-01-27T17:31:08.006Z,101492.64
2018-01-27T17:33:37.283Z,101484.91
2018-01-27T17:36:07.300Z,101478.16
2018-01-27T17:38:36.542Z,101471.41
2018-01-27T17:41:05.776Z,101479.95
2018-01-27T17:43:35.082Z,101474.37
2018-01-27T17:46:04.296Z,101479.23
2018-01-27T17:48:33.513Z,101479.20
2018-01-27T17:51:03.569Z,101478.92
2018-01-27T17:53:32.777Z,101475.55
2018-01-27T17:56:02.086Z,101464.35
2018-01-27T17:58:31.394Z,101467.72
2018-01-27T18:01:00.676Z,101459.86
2018-01-27T18:03:29.891Z,101455.08
2018-01-27T18:05:59.889Z,101450.23
2018-01-27T18:08:30.128Z,101449.92
2018-01-27T18:10:59.372Z,101451.98
2018-01-27T18:13:29.363Z,101452.79
2018-01-27T18:15:58.547Z,101465.03
2018-01-27T18:18:27.786Z,101459.67
2018-01-27T18:20:57.003Z,101443.98
2018-01-27T18:23:26.246Z,101433.63
2018-01-27T18:25:56.166Z,101435.92
2018-01-27T18:28:25.399Z,101432.41
2018-01-27T18:30:54.761Z,101419.46
2018-01-27T18:33:24.044Z,101431.20
2018-01-27T18:35:53.301Z,101436.33
2018-01-27T18:38:23.271Z,101439.03
2018-01-27T18:40:53.264Z,101409.75
2018-01-27T18:43:22.582Z,101395.04
2018-01-27T18:45:51.791Z,101419.73
2018-01-27T18:48:21.003Z,101427.45
2018-01-27T18:50:50.247Z,101441.22
2018-01-27T18:53:19.500Z,101451.08
2018-01-27T18:55:48.763Z,101437.07
2018-01-27T18:58:18.008Z,101431.27
2018-01-27T19:00:47.276Z,101424.92
2018-01-27T19:03:16.613Z,101414.13
2018-01-27T19:05:46.011Z,101398.20
2018-01-27T19:08:15.976Z,101404.58
2018-01-27T19:10:45.214Z,101396.85
2018-01-27T19:13:14.423Z,101397.55
2018-01-27T19:15:43.650Z,101387.43
2018-01-27T19:18:12.901Z,101382.58
2018-01-27T19:20:43.700Z,101375.69
2018-01-27T19:23:12.974Z,101377.03
2018-01-27T19:25:42.211Z,101375.14
2018-01-27T19:28:11.467Z,101394.48
2018-01-27T19:30:40.689Z,101402.17
2018-01-27T19:33:09.944Z,101395.28
2018-01-27T19:35:39.978Z,101398.66
2018-01-27T19:38:09.230Z,101383.94
2018-01-27T19:40:38.687Z,101381.78
2018-01-27T19:43:07.919Z,101365.98
2018-01-27T19:45:37.129Z,101356.40
2018-01-27T19:48:07.121Z,101336.03
2018-01-27T19:50:36.328Z,101298.91
2018-01-27T19:53:05.552Z,101317.67
2018-01-27T19:55:35.521Z,101299.73
2018-01-27T19:58:04.768Z,101334.15
2018-01-27T20:00:33.996Z,101339.30
2018-01-27T20:03:03.303Z,101328.74
2018-01-27T20:05:32.539Z,101343.89
2018-01-27T20:08:01.758Z,101329.03
2018-01-27T20:10:31.093Z,101330.38
2018-01-27T20:13:00.293Z,101316.75
2018-01-27T20:15:29.524Z,101321.73
2018-01-27T20:17:58.863Z,101307.58
2018-01-27T20:20:28.963Z,101293.53
2018-01-27T20:22:58.189Z,101276.25
2018-01-27T20:25:27.434Z,101282.32
2018-01-27T20:27:56.614Z,101298.13
2018-01-27T20:30:25.857Z,101313.93
2018-01-27T20:32:56.077Z,101319.30
2018-01-27T20:35:25.357Z,101325.52
2018-01-27T20:37:54.517Z,101300.69
2018-01-27T20:40:23.751Z,101299.84
2018-01-27T20:42:52.992Z,101314.30
2018-01-27T20:45:22.275Z,101315.54
2018-01-27T20:47:52.254Z,101319.86
2018-01-27T20:50:21.784Z,101323.50
2018-01-27T20:52:50.989Z,101334.05
2018-01-27T20:55:21.007Z,101318.66
2018-01-27T20:57:50.250Z,101341.85
2018-01-27T21:00:19.462Z,101334.16
2018-01-27T21:02:48.757Z,101337.12
2018-01-27T21:05:17.999Z,101334.31
2018-01-27T21:07:48.039Z,101350.52
2018-01-27T21:10:18.111Z,101343.77
2018-01-27T21:12:47.385Z,101343.08
2018-01-27T21:15:16.771Z,101340.80
2018-01-27T21:17:46.051Z,101335.91
2018-01-27T21:20:15.358Z,101337.55
2018-01-27T21:22:44.606Z,101332.97
2018-01-27T21:25:13.970Z,101329.05
2018-01-27T21:27:43.309Z,101327.29
2018-01-27T21:30:12.524Z,101329.45
2018-01-27T21:32:43.271Z,101330.94
2018-01-27T21:35:12.581Z,101334.19
2018-01-27T21:37:41.818Z,101312.84
2018-01-27T21:40:11.187Z,101329.86
2018-01-27T21:42:40.534Z,101325.94
2018-01-27T21:45:09.869Z,101340.39
2018-01-27T21:47:39.096Z,101317.97
2018-01-27T21:50:08.310Z,101327.14
2018-01-27T21:52:37.692Z,101317.97
2018-01-27T21:55:07.919Z,101317.02
2018-01-27T21:57:37.190Z,101321.35
2018-01-27T22:00:06.429Z,101312.16
2018-01-27T22:02:35.615Z,101321.77
2018-01-27T22:05:05.067Z,101306.50
2018-01-27T22:07:34.289Z,101307.57
2018-01-27T22:10:03.512Z,101297.06
2018-01-27T22:12:34.396Z,101305.83
2018-01-27T22:15:03.608Z,101302.72
2018-01-27T22:17:33.624Z,101295.04
2018-01-27T22:20:03.597Z,101290.97
2018-01-27T22:22:32.869Z,101292.19
2018-01-27T22:25:02.527Z,101308.94
2018-01-27T22:27:32.522Z,101304.22
2018-01-27T22:30:01.821Z,101303.94
2018-01-27T22:32:31.034Z,101299.08
2018-01-27T22:35:00.302Z,101298.27
2018-01-27T22:37:29.496Z,101301.37
2018-01-27T22:39:58.734Z,101297.45
2018-01-27T22:42:27.976Z,101295.42
2018-01-27T22:44:58.124Z,101294.09
2018-01-27T22:47:27.354Z,101285.42
2018-01-27T22:49:58.113Z,101284.20
2018-01-27T22:52:28.114Z,101283.80
2018-01-27T22:54:57.344Z,101297.85
2018-01-27T22:57:26.641Z,101291.11
2018-01-27T22:59:55.854Z,101286.52
2018-01-27T23:02:25.093Z,101304.35
2018-01-27T23:04:54.297Z,101283.53
2018-01-27T23:07:23.544Z,101299.22
2018-01-27T23:09:52.746Z,101304.73
2018-01-27T23:12:22.293Z,101293.66
2018-01-27T23:14:51.621Z,101300.02
2018-01-27T23:17:21.612Z,101307.98
2018-01-27T23:19:50.899Z,101319.34
2018-01-27T23:22:20.145Z,101319.36
2018-01-27T23:24:49.442Z,101335.55
2018-01-27T23:27:18.715Z,101338.80
2018-01-27T23:29:48.795Z,101327.16
2018-01-27T23:32:18.038Z,101323.27
2018-01-27T23:34:47.558Z,101315.14
2018-01-27T23:37:17.047Z,101326.34
2018-01-27T23:39:47.227Z,101314.20
2018-01-27T23:42:16.529Z,101315.41
2018-01-27T23:44:45.790Z,101312.14
2018-01-27T23:47:15.103Z,101315.80
2018-01-27T23:49:44.345Z,101320.65
2018-01-27T23:52:13.669Z,101321.17
2018-01-27T23:54:43.643Z,101309.00
2018-01-27T23:57:12.934Z,101316.68
2018-01-27T23:59:42.236Z,101307.91
